sensor_id;sensor_type;location;lat;lon;timestamp;P1;durP1;ratioP1;P2;durP2;ratioP2
3095;SDS011;1558;42.700;23.360;2024-02-21T00:00:33;8.50;;;7.60;;
3095;SDS011;1558;42.700;23.360;2024-02-21T00:03:01;7.83;;;7.03;;
3095;SDS011;1558;42.700;23.360;2024-02-21T00:05:30;8.63;;;7.73;;
3095;SDS011;1558;42.700;23.360;2024-02-21T00:07:59;7.93;;;7.13;;
3095;SDS011;1558;42.700;23.360;2024-02-21T00:10:27;7.90;;;7.10;;
3095;SDS011;1558;42.700;23.360;2024-02-21T00:12:58;8.20;;;7.40;;
3095;SDS011;1558;42.700;23.360;2024-02-21T00:15:26;8.43;;;7.63;;
3095;SDS011;1558;42.700;23.360;2024-02-21T00:17:56;7.90;;;7.13;;
3095;SDS011;1558;42.700;23.360;2024-02-21T00:20:25;8.00;;;7.20;;
3095;SDS011;1558;42.700;23.360;2024-02-21T00:22:53;8.23;;;7.43;;
3095;SDS011;1558;42.700;23.360;2024-02-21T00:25:21;9.17;;;8.27;;
3095;SDS011;1558;42.700;23.360;2024-02-21T00:27:49;8.10;;;7.30;;
3095;SDS011;1558;42.700;23.360;2024-02-21T00:30:17;8.20;;;7.40;;
3095;SDS011;1558;42.700;23.360;2024-02-21T00:32:46;7.20;;;6.50;;
3095;SDS011;1558;42.700;23.360;2024-02-21T00:35:15;8.23;;;7.40;;
3095;SDS011;1558;42.700;23.360;2024-02-21T00:38:01;8.37;;;7.57;;
3095;SDS011;1558;42.700;23.360;2024-02-21T00:40:30;7.80;;;7.00;;
3095;SDS011;1558;42.700;23.360;2024-02-21T00:42:58;8.20;;;7.43;;
3095;SDS011;1558;42.700;23.360;2024-02-21T00:45:26;7.80;;;7.10;;
3095;SDS011;1558;42.700;23.360;2024-02-21T00:47:54;8.43;;;7.63;;
3095;SDS011;1558;42.700;23.360;2024-02-21T00:50:24;7.77;;;6.97;;
3095;SDS011;1558;42.700;23.360;2024-02-21T00:52:52;7.60;;;6.90;;
3095;SDS011;1558;42.700;23.360;2024-02-21T00:55:21;7.67;;;6.97;;
3095;SDS011;1558;42.700;23.360;2024-02-21T00:57:50;7.43;;;6.33;;
3095;SDS011;1558;42.700;23.360;2024-02-21T01:00:18;6.60;;;6.00;;
3095;SDS011;1558;42.700;23.360;2024-02-21T01:02:47;6.80;;;6.10;;
3095;SDS011;1558;42.700;23.360;2024-02-21T01:05:19;7.30;;;6.60;;
3095;SDS011;1558;42.700;23.360;2024-02-21T01:07:48;6.83;;;6.23;;
3095;SDS011;1558;42.700;23.360;2024-02-21T01:10:17;6.60;;;5.93;;
3095;SDS011;1558;42.700;23.360;2024-02-21T01:12:45;6.83;;;6.23;;
3095;SDS011;1558;42.700;23.360;2024-02-21T01:15:13;8.93;;;5.93;;
3095;SDS011;1558;42.700;23.360;2024-02-21T01:17:41;6.50;;;5.90;;
3095;SDS011;1558;42.700;23.360;2024-02-21T01:20:10;6.07;;;5.57;;
3095;SDS011;1558;42.700;23.360;2024-02-21T01:22:39;7.17;;;6.47;;
3095;SDS011;1558;42.700;23.360;2024-02-21T01:25:09;6.10;;;5.50;;
3095;SDS011;1558;42.700;23.360;2024-02-21T01:27:37;6.63;;;6.03;;
3095;SDS011;1558;42.700;23.360;2024-02-21T01:30:05;6.43;;;5.83;;
3095;SDS011;1558;42.700;23.360;2024-02-21T01:32:34;7.53;;;6.83;;
3095;SDS011;1558;42.700;23.360;2024-02-21T01:35:05;6.70;;;6.10;;
3095;SDS011;1558;42.700;23.360;2024-02-21T01:37:34;6.90;;;6.20;;
3095;SDS011;1558;42.700;23.360;2024-02-21T01:40:02;6.70;;;6.07;;
3095;SDS011;1558;42.700;23.360;2024-02-21T01:42:32;7.67;;;6.97;;
3095;SDS011;1558;42.700;23.360;2024-02-21T01:45:00;7.70;;;7.00;;
3095;SDS011;1558;42.700;23.360;2024-02-21T01:47:28;7.77;;;6.53;;
3095;SDS011;1558;42.700;23.360;2024-02-21T01:49:57;7.53;;;6.83;;
3095;SDS011;1558;42.700;23.360;2024-02-21T01:52:25;7.60;;;6.90;;
3095;SDS011;1558;42.700;23.360;2024-02-21T01:54:53;7.47;;;6.77;;
3095;SDS011;1558;42.700;23.360;2024-02-21T01:57:23;7.83;;;7.13;;
3095;SDS011;1558;42.700;23.360;2024-02-21T01:59:52;7.73;;;7.03;;
3095;SDS011;1558;42.700;23.360;2024-02-21T02:02:21;7.60;;;6.90;;
3095;SDS011;1558;42.700;23.360;2024-02-21T02:04:49;7.80;;;7.10;;
3095;SDS011;1558;42.700;23.360;2024-02-21T02:07:19;7.13;;;6.43;;
3095;SDS011;1558;42.700;23.360;2024-02-21T02:09:47;7.37;;;6.67;;
3095;SDS011;1558;42.700;23.360;2024-02-21T02:12:16;7.10;;;6.50;;
3095;SDS011;1558;42.700;23.360;2024-02-21T02:14:44;7.63;;;6.93;;
3095;SDS011;1558;42.700;23.360;2024-02-21T02:17:13;7.73;;;6.90;;
3095;SDS011;1558;42.700;23.360;2024-02-21T02:19:43;7.53;;;6.83;;
3095;SDS011;1558;42.700;23.360;2024-02-21T02:22:13;7.43;;;6.63;;
3095;SDS011;1558;42.700;23.360;2024-02-21T02:24:49;7.70;;;6.97;;
3095;SDS011;1558;42.700;23.360;2024-02-21T02:27:17;8.77;;;7.97;;
3095;SDS011;1558;42.700;23.360;2024-02-21T02:29:45;9.50;;;8.60;;
3095;SDS011;1558;42.700;23.360;2024-02-21T02:32:13;10.10;;;9.20;;
3095;SDS011;1558;42.700;23.360;2024-02-21T02:34:41;9.10;;;8.20;;
3095;SDS011;1558;42.700;23.360;2024-02-21T02:37:09;9.20;;;8.30;;
3095;SDS011;1558;42.700;23.360;2024-02-21T02:39:38;9.97;;;8.97;;
3095;SDS011;1558;42.700;23.360;2024-02-21T02:42:07;9.27;;;8.37;;
3095;SDS011;1558;42.700;23.360;2024-02-21T02:44:36;9.93;;;8.93;;
3095;SDS011;1558;42.700;23.360;2024-02-21T02:47:04;10.30;;;9.30;;
3095;SDS011;1558;42.700;23.360;2024-02-21T02:49:32;9.60;;;8.67;;
3095;SDS011;1558;42.700;23.360;2024-02-21T02:52:01;9.37;;;8.43;;
3095;SDS011;1558;42.700;23.360;2024-02-21T02:54:29;10.23;;;9.33;;
3095;SDS011;1558;42.700;23.360;2024-02-21T02:56:57;10.43;;;9.37;;
3095;SDS011;1558;42.700;23.360;2024-02-21T02:59:27;11.00;;;9.73;;
3095;SDS011;1558;42.700;23.360;2024-02-21T03:01:55;9.40;;;8.50;;
3095;SDS011;1558;42.700;23.360;2024-02-21T03:04:23;9.43;;;8.53;;
3095;SDS011;1558;42.700;23.360;2024-02-21T03:06:51;10.13;;;9.13;;
3095;SDS011;1558;42.700;23.360;2024-02-21T03:09:19;10.23;;;9.23;;
3095;SDS011;1558;42.700;23.360;2024-02-21T03:11:48;10.03;;;8.63;;
3095;SDS011;1558;42.700;23.360;2024-02-21T03:14:16;10.73;;;9.73;;
3095;SDS011;1558;42.700;23.360;2024-02-21T03:16:45;11.13;;;10.10;;
3095;SDS011;1558;42.700;23.360;2024-02-21T03:19:13;10.90;;;9.80;;
3095;SDS011;1558;42.700;23.360;2024-02-21T03:21:42;11.60;;;10.40;;
3095;SDS011;1558;42.700;23.360;2024-02-21T03:24:10;11.03;;;9.93;;
3095;SDS011;1558;42.700;23.360;2024-02-21T03:26:38;11.53;;;10.33;;
3095;SDS011;1558;42.700;23.360;2024-02-21T03:29:06;11.60;;;10.50;;
3095;SDS011;1558;42.700;23.360;2024-02-21T03:31:35;11.50;;;10.40;;
3095;SDS011;1558;42.700;23.360;2024-02-21T03:34:04;11.47;;;10.37;;
3095;SDS011;1558;42.700;23.360;2024-02-21T03:36:33;12.23;;;11.03;;
3095;SDS011;1558;42.700;23.360;2024-02-21T03:39:01;12.13;;;11.03;;
3095;SDS011;1558;42.700;23.360;2024-02-21T03:41:29;11.80;;;10.60;;
3095;SDS011;1558;42.700;23.360;2024-02-21T03:43:57;12.50;;;11.20;;
3095;SDS011;1558;42.700;23.360;2024-02-21T03:46:25;12.83;;;11.63;;
3095;SDS011;1558;42.700;23.360;2024-02-21T03:48:54;12.90;;;11.57;;
3095;SDS011;1558;42.700;23.360;2024-02-21T03:51:24;12.13;;;10.90;;
3095;SDS011;1558;42.700;23.360;2024-02-21T03:53:52;12.33;;;11.17;;
3095;SDS011;1558;42.700;23.360;2024-02-21T03:56:21;12.83;;;11.53;;
3095;SDS011;1558;42.700;23.360;2024-02-21T03:58:49;12.27;;;10.97;;
3095;SDS011;1558;42.700;23.360;2024-02-21T04:01:17;12.40;;;11.13;;
3095;SDS011;1558;42.700;23.360;2024-02-21T04:03:46;13.33;;;11.93;;
3095;SDS011;1558;42.700;23.360;2024-02-21T04:06:14;12.80;;;11.50;;
3095;SDS011;1558;42.700;23.360;2024-02-21T04:08:44;14.50;;;11.93;;
3095;SDS011;1558;42.700;23.360;2024-02-21T04:11:12;14.10;;;12.63;;
3095;SDS011;1558;42.700;23.360;2024-02-21T04:13:41;14.17;;;12.77;;
3095;SDS011;1558;42.700;23.360;2024-02-21T04:16:09;13.63;;;12.20;;
3095;SDS011;1558;42.700;23.360;2024-02-21T04:18:37;13.37;;;11.97;;
3095;SDS011;1558;42.700;23.360;2024-02-21T04:21:07;13.47;;;12.07;;
3095;SDS011;1558;42.700;23.360;2024-02-21T04:23:35;13.30;;;12.00;;
3095;SDS011;1558;42.700;23.360;2024-02-21T04:26:05;13.50;;;12.13;;
3095;SDS011;1558;42.700;23.360;2024-02-21T04:28:33;14.73;;;13.17;;
3095;SDS011;1558;42.700;23.360;2024-02-21T04:31:01;13.70;;;12.30;;
3095;SDS011;1558;42.700;23.360;2024-02-21T04:33:29;14.10;;;12.70;;
3095;SDS011;1558;42.700;23.360;2024-02-21T04:35:57;14.30;;;12.80;;
3095;SDS011;1558;42.700;23.360;2024-02-21T04:38:27;14.13;;;12.73;;
3095;SDS011;1558;42.700;23.360;2024-02-21T04:40:55;14.97;;;12.87;;
3095;SDS011;1558;42.700;23.360;2024-02-21T04:43:26;15.20;;;13.60;;
3095;SDS011;1558;42.700;23.360;2024-02-21T04:45:54;13.93;;;12.50;;
3095;SDS011;1558;42.700;23.360;2024-02-21T04:48:22;13.73;;;12.33;;
3095;SDS011;1558;42.700;23.360;2024-02-21T04:50:50;13.47;;;12.07;;
3095;SDS011;1558;42.700;23.360;2024-02-21T04:53:18;13.63;;;12.23;;
3095;SDS011;1558;42.700;23.360;2024-02-21T04:55:47;14.13;;;12.70;;
3095;SDS011;1558;42.700;23.360;2024-02-21T04:58:15;13.47;;;12.07;;
3095;SDS011;1558;42.700;23.360;2024-02-21T05:00:45;14.27;;;12.90;;
3095;SDS011;1558;42.700;23.360;2024-02-21T05:03:13;14.17;;;12.77;;
3095;SDS011;1558;42.700;23.360;2024-02-21T05:05:41;15.53;;;13.93;;
3095;SDS011;1558;42.700;23.360;2024-02-21T05:08:10;14.57;;;13.10;;
3095;SDS011;1558;42.700;23.360;2024-02-21T05:10:38;13.90;;;12.50;;
3095;SDS011;1558;42.700;23.360;2024-02-21T05:13:06;14.40;;;12.90;;
3095;SDS011;1558;42.700;23.360;2024-02-21T05:15:35;14.87;;;13.37;;
3095;SDS011;1558;42.700;23.360;2024-02-21T05:18:05;15.00;;;13.50;;
3095;SDS011;1558;42.700;23.360;2024-02-21T05:20:33;15.03;;;13.53;;
3095;SDS011;1558;42.700;23.360;2024-02-21T05:23:02;14.43;;;13.03;;
3095;SDS011;1558;42.700;23.360;2024-02-21T05:25:30;15.67;;;14.17;;
3095;SDS011;1558;42.700;23.360;2024-02-21T05:27:58;17.37;;;15.67;;
3095;SDS011;1558;42.700;23.360;2024-02-21T05:30:28;17.00;;;15.30;;
3095;SDS011;1558;42.700;23.360;2024-02-21T05:32:57;18.50;;;16.60;;
3095;SDS011;1558;42.700;23.360;2024-02-21T05:35:27;17.17;;;15.33;;
3095;SDS011;1558;42.700;23.360;2024-02-21T05:37:56;17.00;;;15.20;;
3095;SDS011;1558;42.700;23.360;2024-02-21T05:40:26;16.40;;;14.70;;
3095;SDS011;1558;42.700;23.360;2024-02-21T05:42:54;15.73;;;14.10;;
3095;SDS011;1558;42.700;23.360;2024-02-21T05:45:22;15.40;;;13.90;;
3095;SDS011;1558;42.700;23.360;2024-02-21T05:47:50;15.17;;;13.67;;
3095;SDS011;1558;42.700;23.360;2024-02-21T05:50:19;15.47;;;13.87;;
3095;SDS011;1558;42.700;23.360;2024-02-21T05:52:50;14.90;;;13.30;;
3095;SDS011;1558;42.700;23.360;2024-02-21T05:55:19;15.27;;;13.47;;
3095;SDS011;1558;42.700;23.360;2024-02-21T05:57:47;14.03;;;12.63;;
3095;SDS011;1558;42.700;23.360;2024-02-21T06:00:15;14.97;;;13.40;;
3095;SDS011;1558;42.700;23.360;2024-02-21T06:02:44;15.33;;;13.43;;
3095;SDS011;1558;42.700;23.360;2024-02-21T06:05:13;17.07;;;14.30;;
3095;SDS011;1558;42.700;23.360;2024-02-21T06:07:41;15.67;;;14.07;;
3095;SDS011;1558;42.700;23.360;2024-02-21T06:10:11;16.53;;;14.57;;
3095;SDS011;1558;42.700;23.360;2024-02-21T06:12:39;15.20;;;13.60;;
3095;SDS011;1558;42.700;23.360;2024-02-21T06:15:08;15.63;;;14.00;;
3095;SDS011;1558;42.700;23.360;2024-02-21T06:17:36;17.30;;;15.50;;
3095;SDS011;1558;42.700;23.360;2024-02-21T06:20:05;16.27;;;14.60;;
3095;SDS011;1558;42.700;23.360;2024-02-21T06:22:34;15.90;;;14.30;;
3095;SDS011;1558;42.700;23.360;2024-02-21T06:25:02;17.73;;;15.83;;
3095;SDS011;1558;42.700;23.360;2024-02-21T06:27:32;16.80;;;15.10;;
3095;SDS011;1558;42.700;23.360;2024-02-21T06:30:00;18.27;;;14.63;;
3095;SDS011;1558;42.700;23.360;2024-02-21T06:32:29;15.70;;;14.10;;
3095;SDS011;1558;42.700;23.360;2024-02-21T06:34:57;15.70;;;14.20;;
3095;SDS011;1558;42.700;23.360;2024-02-21T06:37:28;15.53;;;13.80;;
3095;SDS011;1558;42.700;23.360;2024-02-21T06:39:57;16.10;;;14.40;;
3095;SDS011;1558;42.700;23.360;2024-02-21T06:42:25;17.37;;;14.87;;
3095;SDS011;1558;42.700;23.360;2024-02-21T06:44:54;16.37;;;14.53;;
3095;SDS011;1558;42.700;23.360;2024-02-21T06:47:23;15.50;;;13.90;;
3095;SDS011;1558;42.700;23.360;2024-02-21T06:49:51;16.17;;;14.57;;
3095;SDS011;1558;42.700;23.360;2024-02-21T06:52:20;17.40;;;15.80;;
3095;SDS011;1558;42.700;23.360;2024-02-21T06:54:49;18.10;;;16.27;;
3095;SDS011;1558;42.700;23.360;2024-02-21T06:57:17;18.90;;;16.03;;
3095;SDS011;1558;42.700;23.360;2024-02-21T06:59:45;17.80;;;15.27;;
3095;SDS011;1558;42.700;23.360;2024-02-21T07:02:15;16.47;;;14.90;;
3095;SDS011;1558;42.700;23.360;2024-02-21T07:04:43;16.63;;;14.83;;
3095;SDS011;1558;42.700;23.360;2024-02-21T07:07:11;17.53;;;15.73;;
3095;SDS011;1558;42.700;23.360;2024-02-21T07:09:40;17.93;;;16.10;;
3095;SDS011;1558;42.700;23.360;2024-02-21T07:12:08;18.03;;;16.13;;
3095;SDS011;1558;42.700;23.360;2024-02-21T07:14:37;19.13;;;17.10;;
3095;SDS011;1558;42.700;23.360;2024-02-21T07:17:05;17.97;;;16.07;;
3095;SDS011;1558;42.700;23.360;2024-02-21T07:19:35;19.17;;;16.67;;
3095;SDS011;1558;42.700;23.360;2024-02-21T07:22:03;19.63;;;16.37;;
3095;SDS011;1558;42.700;23.360;2024-02-21T07:24:31;21.67;;;15.97;;
3095;SDS011;1558;42.700;23.360;2024-02-21T07:26:59;18.23;;;15.33;;
3095;SDS011;1558;42.700;23.360;2024-02-21T07:29:31;16.20;;;14.60;;
3095;SDS011;1558;42.700;23.360;2024-02-21T07:31:59;17.73;;;15.47;;
3095;SDS011;1558;42.700;23.360;2024-02-21T07:34:27;17.70;;;15.17;;
3095;SDS011;1558;42.700;23.360;2024-02-21T07:36:57;17.17;;;15.37;;
3095;SDS011;1558;42.700;23.360;2024-02-21T07:39:25;17.57;;;15.50;;
3095;SDS011;1558;42.700;23.360;2024-02-21T07:41:54;16.73;;;14.93;;
3095;SDS011;1558;42.700;23.360;2024-02-21T07:44:22;20.37;;;16.23;;
3095;SDS011;1558;42.700;23.360;2024-02-21T07:46:50;16.20;;;14.53;;
3095;SDS011;1558;42.700;23.360;2024-02-21T07:49:18;18.07;;;14.80;;
3095;SDS011;1558;42.700;23.360;2024-02-21T07:51:46;17.37;;;14.47;;
3095;SDS011;1558;42.700;23.360;2024-02-21T07:54:16;15.17;;;13.67;;
3095;SDS011;1558;42.700;23.360;2024-02-21T07:56:46;19.73;;;16.57;;
3095;SDS011;1558;42.700;23.360;2024-02-21T07:59:15;28.20;;;21.73;;
3095;SDS011;1558;42.700;23.360;2024-02-21T08:01:43;16.37;;;14.67;;
3095;SDS011;1558;42.700;23.360;2024-02-21T08:04:12;20.07;;;15.63;;
3095;SDS011;1558;42.700;23.360;2024-02-21T08:06:41;16.80;;;14.17;;
3095;SDS011;1558;42.700;23.360;2024-02-21T08:09:10;17.70;;;14.47;;
3095;SDS011;1558;42.700;23.360;2024-02-21T08:11:39;16.20;;;14.50;;
3095;SDS011;1558;42.700;23.360;2024-02-21T08:14:08;18.67;;;15.30;;
3095;SDS011;1558;42.700;23.360;2024-02-21T08:16:36;16.33;;;14.20;;
3095;SDS011;1558;42.700;23.360;2024-02-21T08:19:04;15.27;;;13.80;;
3095;SDS011;1558;42.700;23.360;2024-02-21T08:21:32;16.17;;;14.57;;
3095;SDS011;1558;42.700;23.360;2024-02-21T08:24:00;17.97;;;14.67;;
3095;SDS011;1558;42.700;23.360;2024-02-21T08:26:29;17.13;;;14.73;;
3095;SDS011;1558;42.700;23.360;2024-02-21T08:28:59;18.17;;;15.10;;
3095;SDS011;1558;42.700;23.360;2024-02-21T08:31:27;15.27;;;13.83;;
3095;SDS011;1558;42.700;23.360;2024-02-21T08:33:58;16.53;;;14.83;;
3095;SDS011;1558;42.700;23.360;2024-02-21T08:36:29;17.27;;;15.33;;
3095;SDS011;1558;42.700;23.360;2024-02-21T08:38:59;16.47;;;14.87;;
3095;SDS011;1558;42.700;23.360;2024-02-21T08:41:30;19.80;;;15.90;;
3095;SDS011;1558;42.700;23.360;2024-02-21T08:44:18;19.10;;;15.50;;
3095;SDS011;1558;42.700;23.360;2024-02-21T08:46:47;20.57;;;15.27;;
3095;SDS011;1558;42.700;23.360;2024-02-21T08:49:16;19.17;;;16.30;;
3095;SDS011;1558;42.700;23.360;2024-02-21T08:51:44;16.63;;;14.93;;
3095;SDS011;1558;42.700;23.360;2024-02-21T08:54:13;18.33;;;15.53;;
3095;SDS011;1558;42.700;23.360;2024-02-21T08:56:41;16.30;;;14.80;;
3095;SDS011;1558;42.700;23.360;2024-02-21T08:59:09;22.37;;;16.20;;
3095;SDS011;1558;42.700;23.360;2024-02-21T09:01:39;17.53;;;15.73;;
3095;SDS011;1558;42.700;23.360;2024-02-21T09:04:07;16.83;;;14.93;;
3095;SDS011;1558;42.700;23.360;2024-02-21T09:06:36;28.23;;;15.57;;
3095;SDS011;1558;42.700;23.360;2024-02-21T09:09:08;17.30;;;15.10;;
3095;SDS011;1558;42.700;23.360;2024-02-21T09:11:36;18.47;;;15.50;;
3095;SDS011;1558;42.700;23.360;2024-02-21T09:14:06;19.70;;;15.07;;
3095;SDS011;1558;42.700;23.360;2024-02-21T09:16:35;16.53;;;14.80;;
3095;SDS011;1558;42.700;23.360;2024-02-21T09:19:04;15.60;;;14.07;;
3095;SDS011;1558;42.700;23.360;2024-02-21T09:21:33;19.13;;;15.30;;
3095;SDS011;1558;42.700;23.360;2024-02-21T09:24:02;18.07;;;15.20;;
3095;SDS011;1558;42.700;23.360;2024-02-21T09:26:30;16.63;;;14.90;;
3095;SDS011;1558;42.700;23.360;2024-02-21T09:28:58;15.33;;;13.30;;
3095;SDS011;1558;42.700;23.360;2024-02-21T09:31:26;17.50;;;15.33;;
3095;SDS011;1558;42.700;23.360;2024-02-21T09:33:55;15.07;;;13.40;;
3095;SDS011;1558;42.700;23.360;2024-02-21T09:36:24;15.40;;;13.73;;
3095;SDS011;1558;42.700;23.360;2024-02-21T09:38:52;15.17;;;13.70;;
3095;SDS011;1558;42.700;23.360;2024-02-21T09:41:23;14.17;;;12.87;;
3095;SDS011;1558;42.700;23.360;2024-02-21T09:43:54;20.07;;;13.37;;
3095;SDS011;1558;42.700;23.360;2024-02-21T09:46:24;16.40;;;12.97;;
3095;SDS011;1558;42.700;23.360;2024-02-21T09:49:05;14.43;;;13.03;;
3095;SDS011;1558;42.700;23.360;2024-02-21T09:51:43;22.93;;;15.10;;
3095;SDS011;1558;42.700;23.360;2024-02-21T09:54:14;14.97;;;13.40;;
3095;SDS011;1558;42.700;23.360;2024-02-21T09:56:45;21.10;;;14.00;;
3095;SDS011;1558;42.700;23.360;2024-02-21T09:59:13;17.17;;;13.97;;
3095;SDS011;1558;42.700;23.360;2024-02-21T10:01:43;16.27;;;14.10;;
3095;SDS011;1558;42.700;23.360;2024-02-21T10:04:13;15.30;;;13.70;;
3095;SDS011;1558;42.700;23.360;2024-02-21T10:06:41;13.80;;;12.47;;
3095;SDS011;1558;42.700;23.360;2024-02-21T10:09:19;14.63;;;13.23;;
3095;SDS011;1558;42.700;23.360;2024-02-21T10:11:50;17.33;;;15.53;;
3095;SDS011;1558;42.700;23.360;2024-02-21T10:14:18;13.33;;;12.00;;
3095;SDS011;1558;42.700;23.360;2024-02-21T10:16:47;13.77;;;12.47;;
3095;SDS011;1558;42.700;23.360;2024-02-21T10:19:17;14.10;;;12.60;;
3095;SDS011;1558;42.700;23.360;2024-02-21T10:22:03;14.10;;;12.47;;
3095;SDS011;1558;42.700;23.360;2024-02-21T10:24:34;12.80;;;11.50;;
3095;SDS011;1558;42.700;23.360;2024-02-21T10:27:05;15.00;;;11.30;;
3095;SDS011;1558;42.700;23.360;2024-02-21T10:29:35;12.53;;;10.97;;
3095;SDS011;1558;42.700;23.360;2024-02-21T10:32:04;12.10;;;11.03;;
3095;SDS011;1558;42.700;23.360;2024-02-21T10:34:34;13.03;;;11.70;;
3095;SDS011;1558;42.700;23.360;2024-02-21T10:37:04;12.90;;;11.60;;
3095;SDS011;1558;42.700;23.360;2024-02-21T10:39:34;12.82;;;10.85;;
3095;SDS011;1558;42.700;23.360;2024-02-21T10:42:04;19.30;;;12.30;;
3095;SDS011;1558;42.700;23.360;2024-02-21T10:44:36;13.48;;;11.10;;
3095;SDS011;1558;42.700;23.360;2024-02-21T10:47:07;10.98;;;10.07;;
3095;SDS011;1558;42.700;23.360;2024-02-21T10:49:37;14.18;;;10.63;;
3095;SDS011;1558;42.700;23.360;2024-02-21T10:52:11;16.10;;;10.68;;
3095;SDS011;1558;42.700;23.360;2024-02-21T10:54:44;10.10;;;9.15;;
3095;SDS011;1558;42.700;23.360;2024-02-21T10:57:16;11.13;;;8.75;;
3095;SDS011;1558;42.700;23.360;2024-02-21T10:59:46;16.52;;;10.48;;
3095;SDS011;1558;42.700;23.360;2024-02-21T11:02:15;11.80;;;9.68;;
3095;SDS011;1558;42.700;23.360;2024-02-21T11:04:45;11.57;;;8.98;;
3095;SDS011;1558;42.700;23.360;2024-02-21T11:07:16;10.07;;;8.83;;
3095;SDS011;1558;42.700;23.360;2024-02-21T11:09:50;10.75;;;7.45;;
3095;SDS011;1558;42.700;23.360;2024-02-21T11:12:20;9.93;;;7.57;;
3095;SDS011;1558;42.700;23.360;2024-02-21T11:14:49;11.85;;;8.63;;
3095;SDS011;1558;42.700;23.360;2024-02-21T11:17:17;8.27;;;7.55;;
3095;SDS011;1558;42.700;23.360;2024-02-21T11:19:46;8.57;;;7.72;;
3095;SDS011;1558;42.700;23.360;2024-02-21T11:22:16;7.90;;;7.10;;
3095;SDS011;1558;42.700;23.360;2024-02-21T11:24:46;6.90;;;6.03;;
3095;SDS011;1558;42.700;23.360;2024-02-21T11:27:15;7.63;;;6.93;;
3095;SDS011;1558;42.700;23.360;2024-02-21T11:29:46;7.70;;;6.00;;
3095;SDS011;1558;42.700;23.360;2024-02-21T11:32:15;7.20;;;6.03;;
3095;SDS011;1558;42.700;23.360;2024-02-21T11:34:53;6.10;;;5.60;;
3095;SDS011;1558;42.700;23.360;2024-02-21T11:37:30;6.40;;;5.80;;
3095;SDS011;1558;42.700;23.360;2024-02-21T11:40:00;6.63;;;6.03;;
3095;SDS011;1558;42.700;23.360;2024-02-21T11:42:30;7.22;;;6.63;;
3095;SDS011;1558;42.700;23.360;2024-02-21T11:44:59;7.33;;;6.63;;
3095;SDS011;1558;42.700;23.360;2024-02-21T11:47:28;10.57;;;7.13;;
3095;SDS011;1558;42.700;23.360;2024-02-21T11:49:57;7.27;;;6.57;;
3095;SDS011;1558;42.700;23.360;2024-02-21T11:52:25;6.93;;;6.27;;
3095;SDS011;1558;42.700;23.360;2024-02-21T11:54:56;7.40;;;6.80;;
3095;SDS011;1558;42.700;23.360;2024-02-21T11:57:31;8.07;;;6.40;;
3095;SDS011;1558;42.700;23.360;2024-02-21T12:00:10;10.57;;;6.93;;
3095;SDS011;1558;42.700;23.360;2024-02-21T12:02:40;6.90;;;6.20;;
3095;SDS011;1558;42.700;23.360;2024-02-21T12:05:08;6.37;;;5.57;;
3095;SDS011;1558;42.700;23.360;2024-02-21T12:07:37;7.87;;;6.53;;
3095;SDS011;1558;42.700;23.360;2024-02-21T12:10:08;24.27;;;7.50;;
3095;SDS011;1558;42.700;23.360;2024-02-21T12:12:37;19.00;;;7.63;;
3095;SDS011;1558;42.700;23.360;2024-02-21T12:15:07;7.33;;;6.30;;
3095;SDS011;1558;42.700;23.360;2024-02-21T12:17:36;13.20;;;6.83;;
3095;SDS011;1558;42.700;23.360;2024-02-21T12:20:05;15.23;;;7.60;;
3095;SDS011;1558;42.700;23.360;2024-02-21T12:22:36;8.10;;;7.07;;
3095;SDS011;1558;42.700;23.360;2024-02-21T12:25:15;11.70;;;7.47;;
3095;SDS011;1558;42.700;23.360;2024-02-21T12:27:45;9.77;;;7.03;;
3095;SDS011;1558;42.700;23.360;2024-02-21T12:30:16;11.10;;;7.30;;
3095;SDS011;1558;42.700;23.360;2024-02-21T12:32:45;7.97;;;6.57;;
3095;SDS011;1558;42.700;23.360;2024-02-21T12:35:14;11.80;;;7.17;;
3095;SDS011;1558;42.700;23.360;2024-02-21T12:37:44;7.57;;;6.60;;
3095;SDS011;1558;42.700;23.360;2024-02-21T12:40:13;7.47;;;6.27;;
3095;SDS011;1558;42.700;23.360;2024-02-21T12:42:42;8.93;;;8.00;;
3095;SDS011;1558;42.700;23.360;2024-02-21T12:45:12;8.40;;;6.73;;
3095;SDS011;1558;42.700;23.360;2024-02-21T12:47:42;13.53;;;7.30;;
3095;SDS011;1558;42.700;23.360;2024-02-21T12:50:10;9.40;;;7.80;;
3095;SDS011;1558;42.700;23.360;2024-02-21T12:52:38;10.13;;;8.20;;
3095;SDS011;1558;42.700;23.360;2024-02-21T12:55:09;10.97;;;8.83;;
3095;SDS011;1558;42.700;23.360;2024-02-21T12:57:40;11.77;;;8.73;;
3095;SDS011;1558;42.700;23.360;2024-02-21T13:00:09;15.10;;;10.67;;
3095;SDS011;1558;42.700;23.360;2024-02-21T13:02:38;12.27;;;9.67;;
3095;SDS011;1558;42.700;23.360;2024-02-21T13:05:06;10.70;;;9.70;;
3095;SDS011;1558;42.700;23.360;2024-02-21T13:07:35;14.20;;;9.43;;
3095;SDS011;1558;42.700;23.360;2024-02-21T13:10:03;16.87;;;10.90;;
3095;SDS011;1558;42.700;23.360;2024-02-21T13:12:32;12.07;;;9.93;;
3095;SDS011;1558;42.700;23.360;2024-02-21T13:15:02;11.00;;;9.83;;
3095;SDS011;1558;42.700;23.360;2024-02-21T13:17:30;11.10;;;9.90;;
3095;SDS011;1558;42.700;23.360;2024-02-21T13:19:58;11.20;;;10.00;;
3095;SDS011;1558;42.700;23.360;2024-02-21T13:22:27;11.53;;;10.33;;
3095;SDS011;1558;42.700;23.360;2024-02-21T13:24:55;14.27;;;11.20;;
3095;SDS011;1558;42.700;23.360;2024-02-21T13:27:24;11.33;;;10.13;;
3095;SDS011;1558;42.700;23.360;2024-02-21T13:29:52;10.70;;;9.33;;
3095;SDS011;1558;42.700;23.360;2024-02-21T13:32:22;8.30;;;7.50;;
3095;SDS011;1558;42.700;23.360;2024-02-21T13:34:50;9.90;;;7.73;;
3095;SDS011;1558;42.700;23.360;2024-02-21T13:37:19;8.10;;;7.30;;
3095;SDS011;1558;42.700;23.360;2024-02-21T13:39:49;11.27;;;7.50;;
3095;SDS011;1558;42.700;23.360;2024-02-21T13:42:17;9.53;;;7.93;;
3095;SDS011;1558;42.700;23.360;2024-02-21T13:44:45;9.90;;;8.57;;
3095;SDS011;1558;42.700;23.360;2024-02-21T13:47:14;10.60;;;7.43;;
3095;SDS011;1558;42.700;23.360;2024-02-21T13:49:44;9.07;;;8.17;;
3095;SDS011;1558;42.700;23.360;2024-02-21T13:52:12;9.00;;;7.93;;
3095;SDS011;1558;42.700;23.360;2024-02-21T13:54:41;8.97;;;8.17;;
3095;SDS011;1558;42.700;23.360;2024-02-21T13:57:09;10.73;;;8.60;;
3095;SDS011;1558;42.700;23.360;2024-02-21T13:59:37;11.50;;;9.20;;
3095;SDS011;1558;42.700;23.360;2024-02-21T14:02:06;11.27;;;8.70;;
3095;SDS011;1558;42.700;23.360;2024-02-21T14:04:35;11.30;;;8.60;;
3095;SDS011;1558;42.700;23.360;2024-02-21T14:07:05;10.50;;;8.93;;
3095;SDS011;1558;42.700;23.360;2024-02-21T14:09:34;10.73;;;8.93;;
3095;SDS011;1558;42.700;23.360;2024-02-21T14:12:02;9.50;;;8.70;;
3095;SDS011;1558;42.700;23.360;2024-02-21T14:14:34;7.83;;;6.80;;
3095;SDS011;1558;42.700;23.360;2024-02-21T14:17:06;8.10;;;6.67;;
3095;SDS011;1558;42.700;23.360;2024-02-21T14:19:34;7.77;;;7.00;;
3095;SDS011;1558;42.700;23.360;2024-02-21T14:22:02;8.00;;;7.20;;
3095;SDS011;1558;42.700;23.360;2024-02-21T14:24:32;7.13;;;6.43;;
3095;SDS011;1558;42.700;23.360;2024-02-21T14:27:00;8.10;;;7.30;;
3095;SDS011;1558;42.700;23.360;2024-02-21T14:29:30;9.30;;;7.47;;
3095;SDS011;1558;42.700;23.360;2024-02-21T14:31:58;8.23;;;7.43;;
3095;SDS011;1558;42.700;23.360;2024-02-21T14:34:26;10.37;;;8.13;;
3095;SDS011;1558;42.700;23.360;2024-02-21T14:36:54;10.33;;;8.80;;
3095;SDS011;1558;42.700;23.360;2024-02-21T14:39:22;10.07;;;9.13;;
3095;SDS011;1558;42.700;23.360;2024-02-21T14:41:53;10.13;;;9.10;;
3095;SDS011;1558;42.700;23.360;2024-02-21T14:44:26;10.13;;;7.83;;
3095;SDS011;1558;42.700;23.360;2024-02-21T14:46:54;10.47;;;8.30;;
3095;SDS011;1558;42.700;23.360;2024-02-21T14:49:23;8.80;;;7.90;;
3095;SDS011;1558;42.700;23.360;2024-02-21T14:51:54;9.73;;;8.17;;
3095;SDS011;1558;42.700;23.360;2024-02-21T14:54:22;8.80;;;7.53;;
3095;SDS011;1558;42.700;23.360;2024-02-21T14:56:53;11.53;;;8.23;;